Time;durP1;ratioP1;P1;durP2;ratioP2;P2;SDS_P1;SDS_P2;PMS_P1;PMS_P2;Temp;Humidity;BMP_temperature;BMP_pressure;BME280_temperature;BME280_humidity;BME280_pressure;Samples;Min_cycle;Max_cycle;Signal;HPM_P1;HPM_P2
2023/06/02 00:00:43;;;;;;;8.52;4.32;;;;;;;18.88;50.09;99428.87;7554012;33;40883;-79
2023/06/02 00:05:01;;;;;;;9.25;4.12;;;;;;;18.82;50.40;99438.47;7553719;33;38671;-80
2023/06/02 00:09:17;;;;;;;9.85;4.62;;;;;;;18.98;50.34;99433.19;7554222;33;36993;-79
2023/06/02 00:13:34;;;;;;;8.27;4.35;;;;;;;18.99;50.57;99430.09;7554056;33;40183;-80
2023/06/02 00:17:50;;;;;;;7.68;4.03;;;;;;;19.04;50.06;99418.84;7554092;33;39962;-79
2023/06/02 00:22:07;;;;;;;8.93;4.25;;;;;;;18.79;50.61;99420.63;7553830;33;37547;-80
2023/06/02 00:26:23;;;;;;;8.93;4.18;;;;;;;18.88;49.95;99417.81;7552642;33;37926;-79
2023/06/02 00:30:39;;;;;;;9.18;4.53;;;;;;;18.45;51.30;99416.91;7553721;33;40088;-80
2023/06/02 00:34:55;;;;;;;8.85;4.45;;;;;;;18.55;50.95;99410.22;7553762;33;39859;-80
2023/06/02 00:39:12;;;;;;;8.93;4.37;;;;;;;18.53;50.77;99409.75;7553097;33;37853;-80
2023/06/02 00:43:31;;;;;;;6.10;3.90;;;;;;;18.41;51.56;99415.19;7553154;33;37196;-80
2023/06/02 00:47:47;;;;;;;8.77;4.00;;;;;;;18.29;51.95;99411.16;7552994;33;39541;-80
2023/06/02 00:52:05;;;;;;;11.63;4.40;;;;;;;18.35;51.41;99414.53;7552989;33;40744;-80
2023/06/02 00:56:23;;;;;;;8.02;4.35;;;;;;;18.37;51.52;99404.00;7552342;33;38010;-79
2023/06/02 01:00:42;;;;;;;8.20;4.35;;;;;;;18.36;51.42;99399.63;7539397;33;37124;-79
2023/06/02 01:05:00;;;;;;;11.12;4.93;;;;;;;18.36;51.41;99394.91;7552734;33;39859;-80
2023/06/02 01:09:17;;;;;;;8.88;4.32;;;;;;;18.21;52.43;99395.47;7553073;33;40003;-79
2023/06/02 01:13:35;;;;;;;8.60;3.75;;;;;;;18.26;52.15;99400.00;7552777;33;37854;-79
2023/06/02 01:17:52;;;;;;;12.55;4.72;;;;;;;18.29;51.87;99402.91;7539689;33;37317;-80
2023/06/02 01:22:13;;;;;;;11.73;4.28;;;;;;;18.16;52.54;99410.28;7552742;33;40137;-80
2023/06/02 01:26:34;;;;;;;8.65;4.30;;;;;;;18.25;52.22;99415.75;7539872;33;39922;-80
2023/06/02 01:30:52;;;;;;;7.82;4.18;;;;;;;18.30;52.01;99415.56;7552443;33;37965;-79
2023/06/02 01:35:11;;;;;;;9.20;4.60;;;;;;;18.27;52.21;99424.50;7552334;33;36089;-80
2023/06/02 01:39:28;;;;;;;9.98;4.32;;;;;;;17.96;53.62;99417.31;7538742;33;38984;-79
2023/06/02 01:43:45;;;;;;;7.47;3.87;;;;;;;17.98;53.72;99411.47;7538385;33;39624;-80
2023/06/02 01:48:06;;;;;;;6.43;3.92;;;;;;;18.21;52.70;99412.03;7538497;33;37815;-80
2023/06/02 01:52:22;;;;;;;8.80;5.15;;;;;;;18.30;52.13;99412.81;7551735;33;38833;-80
2023/06/02 01:56:39;;;;;;;9.57;4.20;;;;;;;18.22;52.01;99410.09;7550767;33;39431;-79
2023/06/02 02:00:56;;;;;;;9.35;4.40;;;;;;;18.18;52.48;99407.19;7554790;33;39941;-79
2023/06/02 02:05:13;;;;;;;11.23;4.65;;;;;;;18.01;53.06;99402.56;7555383;33;38479;-80
2023/06/02 02:09:29;;;;;;;9.52;5.20;;;;;;;18.11;52.54;99404.13;7554536;33;37156;-79
2023/06/02 02:13:47;;;;;;;9.40;4.90;;;;;;;18.09;52.48;99395.38;7555397;33;39321;-80
2023/06/02 02:18:04;;;;;;;9.23;4.37;;;;;;;17.84;53.43;99397.88;7555398;33;40894;-81
2023/06/02 02:22:20;;;;;;;12.05;5.22;;;;;;;17.58;54.70;99398.75;7555571;33;37594;-81
2023/06/02 02:26:37;;;;;;;9.55;4.00;;;;;;;17.75;54.52;99394.34;7555320;33;36762;-80
2023/06/02 02:30:53;;;;;;;7.93;4.43;;;;;;;17.84;54.28;99398.69;7555318;33;39559;-80
2023/06/02 02:35:09;;;;;;;9.35;4.72;;;;;;;17.88;54.26;99401.63;7555135;33;40013;-80
2023/06/02 02:39:26;;;;;;;10.02;4.55;;;;;;;17.67;55.17;99397.94;7554665;33;38753;-80
2023/06/02 02:43:43;;;;;;;8.23;4.60;;;;;;;17.81;54.72;99404.03;7555031;33;37452;-81
2023/06/02 02:47:59;;;;;;;8.35;4.62;;;;;;;17.55;55.55;99396.66;7554385;33;39322;-80
2023/06/02 02:52:16;;;;;;;10.35;5.35;;;;;;;17.56;55.99;99394.72;7554331;33;40862;-80
2023/06/02 02:56:32;;;;;;;12.18;4.75;;;;;;;17.39;56.69;99396.38;7554355;33;37570;-80
2023/06/02 03:00:49;;;;;;;9.35;5.12;;;;;;;17.42;56.37;99397.69;7554615;33;37708;-80
2023/06/02 03:05:06;;;;;;;10.38;4.85;;;;;;;17.61;55.66;99398.13;7554577;33;39352;-80
2023/06/02 03:09:22;;;;;;;10.13;4.97;;;;;;;17.48;56.30;99392.81;7553373;33;39718;-79
2023/06/02 03:13:39;;;;;;;8.23;4.40;;;;;;;17.56;56.23;99394.72;7554234;33;38403;-80
2023/06/02 03:17:57;;;;;;;9.23;4.22;;;;;;;17.58;56.20;99396.00;7554159;33;37142;-80
2023/06/02 03:22:13;;;;;;;8.73;4.90;;;;;;;17.73;55.62;99393.84;7554352;33;39406;-80
2023/06/02 03:26:29;;;;;;;10.07;5.03;;;;;;;17.75;55.72;99397.13;7554038;33;40228;-80
2023/06/02 03:30:45;;;;;;;8.23;4.60;;;;;;;17.70;56.29;99398.09;7553815;33;37815;-80
2023/06/02 03:35:02;;;;;;;7.65;4.80;;;;;;;17.82;56.15;99395.44;7531090;33;36832;-81
2023/06/02 03:39:18;;;;;;;10.45;5.57;;;;;;;17.86;56.53;99403.06;7553915;33;39402;-81
2023/06/02 03:43:34;;;;;;;9.30;4.68;;;;;;;18.05;56.27;99402.69;7554158;33;40103;-79
2023/06/02 03:47:50;;;;;;;8.02;4.40;;;;;;;18.14;56.53;99398.78;7554177;33;37529;-80
2023/06/02 03:52:07;;;;;;;9.40;5.12;;;;;;;18.14;56.53;99395.19;7553884;33;36798;-80
2023/06/02 03:56:23;;;;;;;9.73;4.80;;;;;;;18.07;56.83;99400.41;7553722;33;39349;-80
2023/06/02 04:00:39;;;;;;;9.93;4.50;;;;;;;18.32;56.18;99405.00;7545848;33;40948;-80
2023/06/02 04:04:56;;;;;;;9.88;4.85;;;;;;;18.24;56.75;99400.31;7553796;33;37994;-80
2023/06/02 04:09:13;;;;;;;8.20;4.60;;;;;;;18.40;56.58;99406.06;7553264;33;37002;-80
2023/06/02 04:13:29;;;;;;;8.23;4.72;;;;;;;18.51;56.87;99392.72;7553969;33;40136;-80
2023/06/02 04:17:46;;;;;;;9.93;4.78;;;;;;;18.53;57.53;99395.94;7553972;33;39913;-80
2023/06/02 04:22:03;;;;;;;11.93;5.18;;;;;;;18.67;57.66;99390.97;7553564;33;37949;-80
2023/06/02 04:26:20;;;;;;;8.15;4.80;;;;;;;18.80;58.04;99397.38;7551957;33;37832;-80
2023/06/02 04:30:38;;;;;;;9.35;5.25;;;;;;;18.91;58.25;99386.78;7552866;33;40578;-79
2023/06/02 04:34:54;;;;;;;9.02;5.25;;;;;;;19.07;58.04;99392.47;7553794;33;40239;-79
2023/06/02 04:39:10;;;;;;;9.32;4.85;;;;;;;19.29;57.08;99385.78;7553530;33;38423;-79
2023/06/02 04:43:27;;;;;;;13.43;5.18;;;;;;;19.35;57.30;99394.66;7553587;33;37593;-79
2023/06/02 04:47:43;;;;;;;12.37;5.60;;;;;;;19.20;57.58;99390.59;7553362;33;39496;-79
2023/06/02 04:52:02;;;;;;;9.57;5.25;;;;;;;19.40;56.59;99392.47;7552838;33;40974;-79
2023/06/02 04:56:19;;;;;;;8.55;4.97;;;;;;;19.42;57.15;99386.63;7553114;33;37969;-78
2023/06/02 05:00:35;;;;;;;11.07;4.80;;;;;;;19.60;56.75;99388.06;7552872;33;37227;-78
2023/06/02 05:04:52;;;;;;;8.90;4.93;;;;;;;19.94;55.92;99390.78;7552572;33;39300;-81
2023/06/02 05:09:08;;;;;;;8.13;4.82;;;;;;;19.93;54.69;99389.19;7552624;33;40022;-80
2023/06/02 05:13:27;;;;;;;8.73;4.62;;;;;;;19.98;56.36;99387.00;7553261;33;37674;-80
2023/06/02 05:17:43;;;;;;;11.65;4.40;;;;;;;20.24;55.24;99383.87;7552612;33;37061;-80
2023/06/02 05:22:01;;;;;;;12.32;4.93;;;;;;;19.96;55.50;99391.25;7552631;33;39242;-80
2023/06/02 05:26:17;;;;;;;10.32;4.70;;;;;;;20.05;55.00;99381.69;7531979;33;39898;-74
2023/06/02 05:30:34;;;;;;;12.70;5.72;;;;;;;20.38;53.96;99393.78;7539684;33;38838;-73
2023/06/02 05:34:51;;;;;;;11.80;5.70;;;;;;;20.56;54.11;99395.16;7554398;33;37519;-73
2023/06/02 05:39:07;;;;;;;10.45;4.97;;;;;;;21.03;53.60;99395.78;7556102;33;39254;-73
2023/06/02 05:43:24;;;;;;;13.27;4.85;;;;;;;21.39;53.22;99392.84;7555878;33;40078;-72
2023/06/02 05:47:41;;;;;;;11.30;5.12;;;;;;;21.60;54.23;99386.28;7555628;33;37731;-72
2023/06/02 05:51:57;;;;;;;8.48;4.50;;;;;;;21.88;53.05;99379.88;7554902;33;37896;-78
2023/06/02 05:56:13;;;;;;;18.40;5.78;;;;;;;21.53;52.65;99383.34;7554927;33;39464;-80
2023/06/02 06:00:29;;;;;;;9.73;4.93;;;;;;;22.01;51.91;99384.16;7555987;33;38895;-76
2023/06/02 06:04:45;;;;;;;15.88;4.75;;;;;;;21.85;51.72;99384.19;7555533;33;37598;-77
2023/06/02 06:09:02;;;;;;;12.15;4.95;;;;;;;22.00;51.92;99379.78;7555699;33;37141;-76
2023/06/02 06:13:18;;;;;;;13.10;4.85;;;;;;;21.91;52.16;99376.37;7555096;33;39521;-76
2023/06/02 06:17:34;;;;;;;11.45;4.72;;;;;;;22.27;51.54;99378.09;7555170;33;40755;-76
2023/06/02 06:21:51;;;;;;;7.90;4.40;;;;;;;21.83;52.88;99380.12;7552564;33;37994;-76
2023/06/02 06:26:07;;;;;;;10.15;5.15;;;;;;;22.18;52.28;99382.19;7554283;33;38426;-76
2023/06/02 06:30:23;;;;;;;16.62;5.50;;;;;;;22.82;52.17;99382.88;7555316;33;39307;-77
2023/06/02 06:34:40;;;;;;;9.43;4.55;;;;;;;23.07;50.78;99380.62;7554310;33;40791;-77
2023/06/02 06:38:56;;;;;;;17.50;5.18;;;;;;;23.29;49.56;99384.66;7545703;33;38744;-76
2023/06/02 06:43:15;;;;;;;9.77;4.70;;;;;;;23.17;49.39;99380.06;7527283;33;37599;-77
2023/06/02 06:47:39;;;;;;;9.50;4.93;;;;;;;23.70;47.21;99384.19;7540053;33;40021;-77
2023/06/02 06:51:56;;;;;;;10.18;4.90;;;;;;;23.92;45.98;99377.88;7539511;33;40910;-77
2023/06/02 06:56:12;;;;;;;9.63;4.97;;;;;;;23.95;47.59;99388.25;7551748;33;38734;-77
2023/06/02 07:00:29;;;;;;;10.50;4.62;;;;;;;24.34;46.30;99392.88;7554806;33;37963;-77
2023/06/02 07:04:45;;;;;;;9.10;5.22;;;;;;;24.08;45.64;99393.66;7554761;33;39403;-78
2023/06/02 07:09:02;;;;;;;13.85;4.65;;;;;;;24.66;44.95;99393.34;7539726;33;40857;-77
2023/06/02 07:13:19;;;;;;;12.75;5.47;;;;;;;24.90;44.18;99396.88;7538224;33;38420;-77
2023/06/02 07:17:35;;;;;;;10.25;4.93;;;;;;;24.61;45.00;99388.12;7538483;33;37227;-76
2023/06/02 07:21:52;;;;;;;11.32;5.22;;;;;;;24.63;44.40;99394.13;7536149;33;39520;-76
2023/06/02 07:26:08;;;;;;;9.70;4.78;;;;;;;25.06;45.51;99391.91;7538669;33;40832;-76
2023/06/02 07:30:24;;;;;;;11.32;4.87;;;;;;;24.56;44.81;99388.47;7536230;33;38465;-76
2023/06/02 07:34:41;;;;;;;10.00;4.87;;;;;;;24.78;44.89;99388.75;7536786;33;37266;-75
2023/06/02 07:38:57;;;;;;;11.02;5.05;;;;;;;25.06;44.85;99389.13;7538993;33;39446;-75
2023/06/02 07:43:13;;;;;;;18.90;5.35;;;;;;;25.66;44.19;99381.81;7536569;33;39921;-76
2023/06/02 07:47:30;;;;;;;8.43;5.10;;;;;;;25.75;45.83;99373.94;7534003;33;37924;-76
2023/06/02 07:51:46;;;;;;;9.00;4.70;;;;;;;25.92;42.22;99382.84;7528891;33;37262;-78
2023/06/02 07:56:03;;;;;;;8.77;4.78;;;;;;;25.52;43.87;99376.91;7528203;33;39913;-78
2023/06/02 08:00:21;;;;;;;15.00;4.80;;;;;;;25.95;43.49;99376.53;7548886;33;39920;-79
2023/06/02 08:04:37;;;;;;;7.93;4.37;;;;;;;25.99;42.13;99377.34;7554208;33;38755;-77
2023/06/02 08:08:54;;;;;;;10.75;4.75;;;;;;;26.14;43.47;99376.28;7554324;33;37161;-79
2023/06/02 08:13:11;;;;;;;9.73;4.50;;;;;;;26.01;43.81;99375.00;7554110;33;39459;-78
2023/06/02 08:17:29;;;;;;;10.73;4.78;;;;;;;26.09;42.56;99381.44;7554177;33;40163;-79
2023/06/02 08:21:46;;;;;;;12.82;4.32;;;;;;;26.29;41.33;99376.41;7553958;33;37872;-78
2023/06/02 08:26:02;;;;;;;12.23;3.72;;;;;;;26.30;39.27;99383.56;7530842;33;37506;-80
2023/06/02 08:30:19;;;;;;;5.90;2.92;;;;;;;26.31;35.22;99385.19;7528541;33;39506;-78
2023/06/02 08:34:36;;;;;;;9.32;3.33;;;;;;;26.75;31.51;99382.31;7528241;33;40112;-79
2023/06/02 08:38:52;;;;;;;10.85;4.75;;;;;;;26.27;36.34;99378.75;7528204;33;38013;-79
2023/06/02 08:43:09;;;;;;;11.88;4.57;;;;;;;26.21;40.30;99384.72;7528087;33;36867;-79
2023/06/02 08:47:30;;;;;;;8.20;4.05;;;;;;;26.22;39.08;99375.16;7528214;33;39325;-78
2023/06/02 08:51:52;;;;;;;11.52;4.03;;;;;;;26.55;38.16;99373.38;7544951;33;39717;-79
2023/06/02 08:56:08;;;;;;;7.07;3.55;;;;;;;26.43;38.10;99374.50;7527828;33;38048;-79
2023/06/02 09:00:24;;;;;;;9.13;3.70;;;;;;;26.75;36.26;99373.09;7548524;33;35803;-78
2023/06/02 09:04:41;;;;;;;13.93;4.10;;;;;;;26.75;37.79;99367.50;7553297;33;39154;-79
2023/06/02 09:09:01;;;;;;;9.68;4.07;;;;;;;26.98;38.13;99368.03;7539297;33;40009;-79
2023/06/02 09:13:33;;;;;;;7.07;3.53;;;;;;;27.27;34.86;99361.72;7530517;33;37888;-79
2023/06/02 09:18:14;;;;;;;12.10;3.45;;;;;;;27.03;36.71;99350.06;7534369;33;36753;-79
2023/06/02 09:22:30;;;;;;;6.40;2.97;;;;;;;27.38;33.63;99347.78;7556168;33;39271;-79
2023/06/02 09:26:50;;;;;;;11.73;3.10;;;;;;;27.67;31.57;99335.44;7556033;33;40922;-79
2023/06/02 09:31:06;;;;;;;6.55;3.10;;;;;;;27.87;30.23;99335.84;7545411;33;38588;-79
2023/06/02 09:35:42;;;;;;;5.22;2.42;;;;;;;27.96;32.55;99338.28;7532059;33;37226;-79
2023/06/02 09:40:06;;;;;;;7.12;2.70;;;;;;;28.27;30.45;99325.44;7549815;33;39357;-78
2023/06/02 09:44:23;;;;;;;9.80;2.62;;;;;;;28.24;28.35;99326.22;7555870;33;39993;-79
2023/06/02 09:48:53;;;;;;;6.22;2.67;;;;;;;27.97;29.43;99331.47;7555696;33;37999;-79
2023/06/02 09:53:11;;;;;;;8.98;3.45;;;;;;;27.73;30.02;99331.06;7555778;33;38078;-79
2023/06/02 09:57:30;;;;;;;6.60;3.00;;;;;;;28.30;30.13;99323.81;7556013;33;38612;-79
2023/06/02 10:01:48;;;;;;;9.95;2.58;;;;;;;28.75;28.98;99318.53;7553697;33;40423;-79
2023/06/02 10:06:16;;;;;;;5.95;2.53;;;;;;;28.53;28.72;99314.13;7538588;33;39649;-79
2023/06/02 10:10:44;;;;;;;6.15;2.12;;;;;;;28.65;27.74;99308.13;7554404;33;37121;-79
2023/06/02 10:15:31;;;;;;;3.53;2.20;;;;;;;28.90;25.02;99301.63;7554328;33;39011;-79
2023/06/02 10:20:20;;;;;;;8.38;2.70;;;;;;;29.26;26.15;99307.84;7554932;33;40127;-79
2023/06/02 10:24:57;;;;;;;7.43;2.55;;;;;;;29.35;28.73;99313.78;7555158;33;38795;-79
2023/06/02 10:29:15;;;;;;;5.25;2.37;;;;;;;29.29;24.71;99314.66;7554271;33;37048;-79
2023/06/02 10:33:54;;;;;;;8.93;2.40;;;;;;;29.89;26.17;99302.19;7553917;33;40136;-71
2023/06/02 10:38:34;;;;;;;7.22;2.67;;;;;;;30.34;29.69;99295.72;7537508;33;40636;-70
2023/06/02 10:43:11;;;;;;;6.40;2.00;;;;;;;30.23;26.57;99293.00;7554281;33;37719;-72
2023/06/02 10:47:35;;;;;;;4.57;1.90;;;;;;;30.37;23.13;99291.31;7542075;33;37904;-71
2023/06/02 10:52:08;;;;;;;9.32;2.42;;;;;;;30.82;23.76;99296.78;7534545;33;39459;-71
2023/06/02 10:56:40;;;;;;;2.37;1.65;;;;;;;31.11;27.42;99291.59;7540197;33;39639;-71
2023/06/02 11:00:57;;;;;;;6.90;2.12;;;;;;;30.90;20.64;99287.81;7539693;33;38514;-72
2023/06/02 11:05:26;;;;;;;7.97;1.95;;;;;;;31.00;24.89;99282.50;7534289;33;37901;-76
2023/06/02 11:09:43;;;;;;;4.15;1.98;;;;;;;29.98;22.74;99281.22;7551000;33;39025;-72
2023/06/02 11:14:00;;;;;;;5.28;1.65;;;;;;;31.03;24.30;99270.41;7552853;33;40939;-80
2023/06/02 11:18:27;;;;;;;3.83;2.08;;;;;;;31.47;22.16;99270.56;7539417;33;38801;-78
2023/06/02 11:22:45;;;;;;;5.95;2.50;;;;;;;31.57;21.92;99263.97;7554419;33;37265;-78
2023/06/02 11:27:01;;;;;;;4.05;2.22;;;;;;;31.21;22.12;99261.69;7540044;33;39531;-83
2023/06/02 11:31:19;;;;;;;4.45;2.28;;;;;;;30.89;21.50;99271.34;7551346;33;40102;-78
2023/06/02 11:35:36;;;;;;;9.38;2.37;;;;;;;31.17;23.33;99249.69;7553635;33;38682;-80
2023/06/02 11:39:55;;;;;;;7.87;2.10;;;;;;;30.93;23.63;99258.06;7541130;33;37878;-76
2023/06/02 11:44:13;;;;;;;9.77;2.33;;;;;;;30.80;25.73;99263.44;7553048;33;40143;-78
2023/06/02 11:48:30;;;;;;;4.60;2.10;;;;;;;31.34;26.06;99265.53;7549732;33;40856;-82
2023/06/02 11:52:47;;;;;;;3.90;1.80;;;;;;;31.24;22.48;99281.34;7554035;33;38420;-77
2023/06/02 11:57:03;;;;;;;2.30;1.60;;;;;;;31.76;22.19;99270.91;7553522;33;37020;-80
2023/06/02 12:01:19;;;;;;;3.45;2.03;;;;;;;32.05;23.75;99279.66;7540436;33;39453;-79
2023/06/02 12:05:46;;;;;;;6.32;2.15;;;;;;;32.59;22.31;99281.44;7553183;33;40772;-83
2023/06/02 12:10:05;;;;;;;5.07;2.08;;;;;;;32.46;20.66;99267.19;7550451;33;37984;-80
2023/06/02 12:14:21;;;;;;;3.17;2.05;;;;;;;32.17;19.99;99273.41;7541319;33;37101;-78
2023/06/02 12:18:38;;;;;;;4.03;1.80;;;;;;;32.48;20.72;99267.56;7553299;33;40139;-80
2023/06/02 12:22:55;;;;;;;4.62;1.85;;;;;;;32.79;21.81;99269.34;7553002;33;40597;-76
2023/06/02 12:27:20;;;;;;;4.45;1.95;;;;;;;31.87;21.33;99265.06;7553461;33;38911;-80
2023/06/02 12:31:40;;;;;;;3.92;1.90;;;;;;;32.22;19.74;99266.47;7541095;33;37016;-78
2023/06/02 12:35:57;;;;;;;4.25;2.08;;;;;;;32.53;20.05;99260.59;7548176;33;39017;-80
2023/06/02 12:40:13;;;;;;;5.95;2.20;;;;;;;32.77;18.79;99252.84;7552942;33;40906;-79
2023/06/02 12:44:31;;;;;;;10.50;2.55;;;;;;;31.91;20.04;99246.06;7553314;33;38348;-82
2023/06/02 12:48:47;;;;;;;4.55;2.20;;;;;;;32.08;20.61;99247.00;7552921;33;37572;-77
2023/06/02 12:53:04;;;;;;;3.00;1.77;;;;;;;31.70;20.09;99239.59;7552862;33;39350;-77
2023/06/02 12:57:22;;;;;;;5.47;2.00;;;;;;;31.93;20.47;99235.19;7553216;33;39629;-80
2023/06/02 13:01:39;;;;;;;10.18;1.83;;;;;;;31.88;20.20;99227.22;7551511;33;37134;-78
2023/06/02 13:05:59;;;;;;;3.40;1.77;;;;;;;31.58;20.43;99226.13;7553210;33;37358;-83
2023/06/02 13:10:17;;;;;;;4.37;1.92;;;;;;;32.24;20.32;99224.53;7552387;33;40096;-80
2023/06/02 13:14:34;;;;;;;6.18;2.15;;;;;;;32.46;21.22;99218.44;7552976;33;39983;-79
2023/06/02 13:18:52;;;;;;;6.20;2.17;;;;;;;31.94;17.92;99219.84;7552465;33;38877;-81
2023/06/02 13:23:09;;;;;;;6.53;2.00;;;;;;;32.07;21.49;99206.75;7550787;33;37697;-80
2023/06/02 13:27:27;;;;;;;3.20;1.90;;;;;;;32.08;19.80;99213.97;7542451;33;40132;-81
2023/06/02 13:31:57;;;;;;;8.20;1.87;;;;;;;31.65;17.81;99217.56;7552040;33;39869;-81
2023/06/02 13:36:14;;;;;;;7.75;2.47;;;;;;;31.71;20.64;99218.66;7552443;33;38662;-84
2023/06/02 13:40:31;;;;;;;4.70;2.28;;;;;;;31.64;18.94;99219.56;7533267;33;36739;-85
2023/06/02 13:44:57;;;;;;;5.93;2.42;;;;;;;32.34;18.13;99217.06;7547295;33;39892;-83
2023/06/02 13:49:19;;;;;;;4.25;2.05;;;;;;;32.70;19.02;99214.31;7551436;33;39985;-84
2023/06/02 13:53:35;;;;;;;;;;;;;;;33.49;20.52;99222.97;7552330;33;38212;-82
2023/06/02 13:57:51;;;;;;;3.33;2.03;;;;;;;33.58;19.28;99206.22;7546762;33;295032;-82
2023/06/02 14:02:08;;;;;;;4.43;1.90;;;;;;;33.54;18.11;99208.31;7554658;33;40037;-80
2023/06/02 14:06:24;;;;;;;5.45;2.62;;;;;;;33.49;18.91;99206.81;7544537;33;40509;-80
2023/06/02 14:10:40;;;;;;;5.03;2.12;;;;;;;33.19;19.22;99199.50;7537881;33;38467;-82
2023/06/02 14:14:57;;;;;;;7.55;2.25;;;;;;;33.69;19.63;99203.13;7539660;33;37931;-80
2023/06/02 14:19:13;;;;;;;4.43;2.28;;;;;;;33.44;19.86;99203.72;7541448;33;39383;-82
2023/06/02 14:23:30;;;;;;;5.47;2.17;;;;;;;33.01;18.12;99216.81;7536870;33;40400;-82
2023/06/02 14:27:46;;;;;;;8.45;2.60;;;;;;;32.65;20.59;99211.22;7539787;33;37920;-82
2023/06/02 14:32:03;;;;;;;5.07;2.05;;;;;;;32.77;20.94;99207.69;7542795;33;36771;-86
2023/06/02 14:36:21;;;;;;;7.72;2.35;;;;;;;33.59;20.41;99199.31;7541675;33;40123;-84
2023/06/02 14:40:38;;;;;;;16.20;3.10;;;;;;;33.48;21.46;99210.09;7538098;33;39921;-78
2023/06/02 14:44:54;;;;;;;3.87;2.20;;;;;;;33.61;21.19;99208.13;7555231;33;37602;-79
2023/06/02 14:49:11;;;;;;;6.65;2.58;;;;;;;33.92;20.21;99204.91;7554799;33;36924;-80
2023/06/02 14:53:27;;;;;;;7.62;2.33;;;;;;;33.45;19.57;99205.31;7532825;33;39466;-81
2023/06/02 14:57:44;;;;;;;7.60;2.40;;;;;;;33.00;21.09;99209.59;7527840;33;39895;-79
2023/06/02 15:02:02;;;;;;;7.93;2.45;;;;;;;33.49;21.49;99209.63;7527837;33;36903;-80
2023/06/02 15:06:19;;;;;;;6.25;2.40;;;;;;;33.19;23.00;99216.44;7543650;33;36727;-77
2023/06/02 15:10:35;;;;;;;8.65;2.60;;;;;;;33.33;21.84;99209.66;7555013;33;39416;-76
2023/06/02 15:14:51;;;;;;;6.12;2.15;;;;;;;32.40;22.50;99215.34;7555008;33;39957;-77
2023/06/02 15:19:08;;;;;;;6.03;2.00;;;;;;;32.38;22.88;99214.97;7554883;33;37958;-77
2023/06/02 15:23:24;;;;;;;7.15;2.50;;;;;;;32.31;23.39;99215.91;7554893;33;37859;-78
2023/06/02 15:27:42;;;;;;;5.20;2.40;;;;;;;32.37;23.14;99208.56;7554631;33;39111;-73
2023/06/02 15:31:58;;;;;;;4.12;2.17;;;;;;;32.45;25.57;99214.81;7554524;33;40098;-80
2023/06/02 15:36:15;;;;;;;7.87;2.65;;;;;;;32.56;23.57;99209.75;7548864;33;37572;-79
2023/06/02 15:40:31;;;;;;;12.95;2.55;;;;;;;32.43;24.27;99211.66;7552494;33;36896;-80
2023/06/02 15:44:48;;;;;;;5.28;1.92;;;;;;;32.59;24.43;99212.94;7552999;33;39297;-79
2023/06/02 15:49:04;;;;;;;4.12;2.37;;;;;;;32.54;23.53;99206.56;7554012;33;40212;-79
2023/06/02 15:53:21;;;;;;;3.50;2.12;;;;;;;32.41;23.49;99214.13;7541270;33;37621;-79
2023/06/02 15:57:37;;;;;;;3.50;2.17;;;;;;;32.22;22.87;99212.09;7537567;33;37898;-79
2023/06/02 16:01:55;;;;;;;7.47;2.25;;;;;;;32.36;23.82;99206.16;7546355;33;39025;-79
2023/06/02 16:06:12;;;;;;;6.55;2.78;;;;;;;32.22;23.83;99209.25;7538414;33;38958;-79
2023/06/02 16:10:30;;;;;;;8.45;2.72;;;;;;;31.86;25.79;99201.47;7526278;33;36852;-79
2023/06/02 16:14:49;;;;;;;7.22;2.42;;;;;;;31.79;24.85;99203.22;7530377;33;37198;-79
2023/06/02 16:19:06;;;;;;;7.68;2.78;;;;;;;31.76;25.34;99204.06;7544576;33;40062;-79
2023/06/02 16:23:23;;;;;;;6.57;2.97;;;;;;;31.25;25.55;99220.19;7553807;33;40267;-81
2023/06/02 16:27:41;;;;;;;6.68;3.00;;;;;;;30.97;24.38;99210.97;7552562;33;38735;-81
2023/06/02 16:31:58;;;;;;;6.90;2.85;;;;;;;30.86;24.86;99222.38;7554232;33;36284;-82
2023/06/02 16:36:15;;;;;;;21.37;3.50;;;;;;;30.71;25.86;99226.59;7553384;33;40164;-82
2023/06/02 16:40:32;;;;;;;11.77;3.12;;;;;;;30.71;25.43;99226.59;7553624;33;39938;-81
2023/06/02 16:44:53;;;;;;;8.82;2.47;;;;;;;30.59;26.05;99238.41;7553252;33;37987;-82
2023/06/02 16:49:11;;;;;;;5.75;2.90;;;;;;;30.49;25.88;99226.88;7550828;33;37016;-82
2023/06/02 16:53:33;;;;;;;7.45;3.30;;;;;;;30.43;26.96;99245.44;7538759;33;40146;-81
2023/06/02 16:57:50;;;;;;;9.20;3.03;;;;;;;30.33;25.74;99254.75;7552760;33;39994;-82
2023/06/02 17:02:06;;;;;;;6.85;3.53;;;;;;;29.96;26.62;99257.16;7552889;33;37991;-82
2023/06/02 17:06:24;;;;;;;5.55;2.90;;;;;;;29.31;26.76;99250.50;7552735;33;38101;-79
2023/06/02 17:10:41;;;;;;;10.10;3.45;;;;;;;29.07;28.36;99258.62;7551293;33;38993;-80
2023/06/02 17:14:57;;;;;;;8.63;3.78;;;;;;;28.86;28.28;99258.78;7551651;33;40022;-80
2023/06/02 17:19:14;;;;;;;7.62;3.60;;;;;;;28.66;28.51;99264.84;7551102;33;38662;-80
2023/06/02 17:23:31;;;;;;;6.97;3.30;;;;;;;28.38;29.19;99274.94;7549698;33;37764;-81
2023/06/02 17:27:48;;;;;;;6.78;3.40;;;;;;;27.99;29.20;99270.22;7548742;33;40168;-80
2023/06/02 17:32:06;;;;;;;6.22;3.15;;;;;;;28.12;28.30;99289.44;7540349;33;41220;-81
2023/06/02 17:36:23;;;;;;;7.85;3.05;;;;;;;27.50;29.12;99294.22;7553563;33;37111;-79
2023/06/02 17:40:43;;;;;;;7.70;3.20;;;;;;;27.49;29.56;99287.84;7554590;33;37202;-76
2023/06/02 17:44:59;;;;;;;8.07;3.50;;;;;;;27.26;30.01;99292.97;7554386;33;39430;-76
2023/06/02 17:49:16;;;;;;;7.95;3.53;;;;;;;27.03;30.27;99304.50;7555336;33;40821;-77
2023/06/02 17:53:32;;;;;;;10.55;3.42;;;;;;;26.79;30.58;99310.41;7555747;33;37982;-78
2023/06/02 17:57:48;;;;;;;6.45;3.33;;;;;;;26.54;31.03;99312.25;7555504;33;37260;-77
2023/06/02 18:02:06;;;;;;;7.35;3.42;;;;;;;26.34;32.01;99315.37;7555660;33;40068;-77
2023/06/02 18:06:22;;;;;;;7.82;3.67;;;;;;;26.30;31.90;99327.69;7555224;33;40877;-77
2023/06/02 18:10:38;;;;;;;6.60;3.35;;;;;;;26.16;32.42;99328.41;7551417;33;39160;-76
2023/06/02 18:14:55;;;;;;;8.73;2.85;;;;;;;25.81;32.90;99319.34;7553210;33;37052;-77
2023/06/02 18:19:12;;;;;;;6.68;3.50;;;;;;;25.88;32.98;99321.41;7554771;33;40236;-80
2023/06/02 18:23:28;;;;;;;8.90;3.47;;;;;;;25.66;32.76;99337.16;7552253;33;40140;-75
2023/06/02 18:27:44;;;;;;;8.05;3.15;;;;;;;25.53;34.01;99347.03;7553925;33;39277;-76
2023/06/02 18:32:03;;;;;;;6.87;3.75;;;;;;;25.42;34.18;99350.50;7554077;33;38037;-76
2023/06/02 18:36:20;;;;;;;13.95;3.10;;;;;;;25.21;35.21;99355.81;7541020;33;41119;-76
2023/06/02 18:40:37;;;;;;;12.10;3.50;;;;;;;24.96;36.64;99361.91;7542882;33;40998;-76
2023/06/02 18:44:54;;;;;;;10.32;4.15;;;;;;;24.81;37.04;99368.47;7533448;33;38951;-75
2023/06/02 18:49:11;;;;;;;14.30;4.95;;;;;;;24.57;37.19;99370.53;7540190;33;37669;-75
2023/06/02 18:53:27;;;;;;;11.73;4.37;;;;;;;24.48;37.38;99372.78;7545482;33;39422;-75
2023/06/02 18:57:44;;;;;;;8.43;3.55;;;;;;;24.26;37.41;99386.38;7541989;33;38684;-76
2023/06/02 19:02:02;;;;;;;12.75;3.90;;;;;;;24.22;37.13;99393.88;7541897;33;36915;-75
2023/06/02 19:06:19;;;;;;;9.00;4.20;;;;;;;24.07;37.21;99394.81;7542066;33;37279;-75
2023/06/02 19:10:36;;;;;;;9.88;4.37;;;;;;;23.93;36.55;99403.72;7541540;33;39521;-76
2023/06/02 19:14:52;;;;;;;15.57;4.20;;;;;;;23.77;35.80;99417.75;7541080;33;41288;-75
2023/06/02 19:19:09;;;;;;;17.40;4.95;;;;;;;23.96;35.49;99428.84;7548791;33;38701;-75
2023/06/02 19:23:25;;;;;;;9.75;4.15;;;;;;;24.05;35.90;99444.50;7553304;33;37896;-76
2023/06/02 19:27:42;;;;;;;8.20;3.95;;;;;;;23.68;36.85;99451.38;7552476;33;39381;-76
2023/06/02 19:31:58;;;;;;;8.35;3.67;;;;;;;23.62;37.62;99456.41;7551711;33;40094;-75
2023/06/02 19:36:15;;;;;;;13.18;4.15;;;;;;;23.57;37.77;99467.06;7551847;33;37969;-77
2023/06/02 19:40:34;;;;;;;9.77;4.15;;;;;;;23.39;37.10;99467.50;7552384;33;37302;-78
2023/06/02 19:44:51;;;;;;;6.82;4.07;;;;;;;23.44;37.03;99467.22;7552406;33;38993;-78
2023/06/02 19:49:08;;;;;;;10.57;4.62;;;;;;;23.44;36.42;99470.00;7552276;33;40745;-78
2023/06/02 19:53:25;;;;;;;10.45;3.92;;;;;;;23.37;36.79;99485.72;7551117;33;37550;-78
2023/06/02 19:57:44;;;;;;;9.73;4.28;;;;;;;23.23;37.91;99491.78;7549998;33;38200;-80
2023/06/02 20:02:00;;;;;;;9.90;4.03;;;;;;;23.22;38.36;99488.19;7552055;33;40207;-79
2023/06/02 20:06:20;;;;;;;7.22;4.00;;;;;;;23.27;37.92;99492.69;7552076;33;40286;-78
2023/06/02 20:10:38;;;;;;;14.65;4.90;;;;;;;23.24;37.87;99494.19;7552008;33;37407;-79